Humidity-temperature Sensor

Selected Measurement Type: Air Temperature

 
Air Temperature [°C]     6 entries per hour
Showing data from 9/20/2019 (00:00:00 Z) to 9/13/2019 (00:01:00 Z)
Previous Next [ Day | 3-Days | 7-Days ]
First Last
Prev [ Day | 3-Days | 7-Days ] Next
First Last

Start Time:     :
End Time:     :     
Time (in GMT) :00 :50 :40 :30 :20 :10
Previous Next [ Day | 3-Days | 7-Days ]
First Last
Prev [ Day | 3-Days | 7-Days ] Next
First Last


123 => good data
MM => data is determined as missing
-- => data not received/configured
Back to Top Back to Top
9/20/2019 00:00 to 23:10 26.90 26.99 26.88 26.77 26.63 26.43
9/19/2019 23:00 to 22:10 26.33 26.34 26.43 26.40 26.30 26.10
9/19/2019 22:00 to 21:10 26.01 25.71 25.55 25.24 25.36 25.65
9/19/2019 21:00 to 20:10 26.94 27.05 27.08 27.17 27.11 27.19
9/19/2019 20:00 to 19:10 27.06 27.01 27.09 27.12 27.13 27.18
9/19/2019 19:00 to 18:10 27.18 27.12 27.17 27.20 27.21 27.15
9/19/2019 18:00 to 17:10 27.06 27.13 27.08 27.15 26.99 26.98
9/19/2019 17:00 to 16:10 27.01 27.07 27.04 27.01 26.98 27.02
9/19/2019 16:00 to 15:10 26.99 27.03 27.05 26.96 26.94 26.99
9/19/2019 15:00 to 14:10 27.01 26.92 27.04 26.91 27.01 26.95
9/19/2019 14:00 to 13:10 27.04 26.97 27.07 26.99 27.03 26.91
9/19/2019 13:00 to 12:10 26.74 26.71 26.74 26.73 26.69 26.73
9/19/2019 12:00 to 11:10 26.30 26.33 26.48 26.29 26.40 26.13
9/19/2019 11:00 to 10:10 25.92 25.76 26.32 26.28 26.33 26.48
9/19/2019 10:00 to 9:10 26.45 26.38 26.33 26.34 26.42 26.43
9/19/2019 09:00 to 8:10 26.46 26.42 26.41 26.44 26.43 26.44
9/19/2019 08:00 to 7:10 26.40 26.36 26.36 26.37 26.37 26.39
9/19/2019 07:00 to 6:10 26.38 26.39 26.33 26.31 26.25 26.20
9/19/2019 06:00 to 5:10 26.24 26.32 26.32 26.23 26.32 26.25
9/19/2019 05:00 to 4:10 26.20 26.28 26.20 26.31 26.25 26.27
9/19/2019 04:00 to 3:10 26.29 26.17 26.23 26.16 26.11 26.09
9/19/2019 03:00 to 2:10 26.18 26.01 26.09 25.97 26.00 25.96
9/19/2019 02:00 to 1:10 26.00 26.01 25.89 26.07 25.97 25.92
9/19/2019 01:00 to 0:10 25.90 25.97 26.01 25.87 26.01 25.94
9/19/2019 00:00 to 23:10 26.06 26.03 26.00 25.92 25.97 26.00
9/18/2019 23:00 to 22:10 26.01 25.89 25.89 25.95 25.91 25.98
9/18/2019 22:00 to 21:10 26.00 25.83 25.84 25.89 25.78 25.83
9/18/2019 21:00 to 20:10 25.75 25.76 25.87 25.84 25.83 25.83
9/18/2019 20:00 to 19:10 25.79 25.71 25.78 25.95 25.77 25.68
9/18/2019 19:00 to 18:10 25.80 25.80 25.69 25.77 25.76 25.77
9/18/2019 18:00 to 17:10 25.79 25.73 25.73 25.72 25.67 25.86
9/18/2019 17:00 to 16:10 25.68 25.63 25.73 25.69 25.67 25.58
9/18/2019 16:00 to 15:10 25.66 25.61 25.56 25.48 25.50 25.48
9/18/2019 15:00 to 14:10 25.42 25.53 25.49 25.56 25.51 25.47
9/18/2019 14:00 to 13:10 25.51 25.65 25.59 25.58 25.60 25.58
9/18/2019 13:00 to 12:10 25.52 25.38 25.37 25.28 25.21 25.17
9/18/2019 12:00 to 11:10 25.14 25.09 25.13 25.08 25.15 25.14
9/18/2019 11:00 to 10:10 25.03 25.05 25.05 25.02 25.10 25.01
9/18/2019 10:00 to 9:10 25.14 24.98 24.97 25.01 25.10 25.06
9/18/2019 09:00 to 8:10 25.10 25.10 25.06 25.03 25.07 25.07
9/18/2019 08:00 to 7:10 25.12 25.10 25.08 25.10 25.12 25.06
9/18/2019 07:00 to 6:10 25.15 25.09 25.09 25.05 25.16 25.17
9/18/2019 06:00 to 5:10 25.17 25.18 25.24 25.20 25.18 25.22
9/18/2019 05:00 to 4:10 25.17 25.20 25.19 25.18 25.18 25.18
9/18/2019 04:00 to 3:10 25.22 25.19 25.37 25.24 25.28 25.26
9/18/2019 03:00 to 2:10 25.29 25.31 25.18 25.22 25.24 25.22
9/18/2019 02:00 to 1:10 25.18 25.31 25.24 25.25 25.15 25.15
9/18/2019 01:00 to 0:10 25.07 25.13 25.09 25.12 25.12 25.06
9/18/2019 00:00 to 23:10 25.09 25.03 25.16 25.18 25.15 25.31
9/17/2019 23:00 to 22:10 25.27 25.28 25.13 25.16 25.20 25.22
9/17/2019 22:00 to 21:10 25.28 25.20 25.21 25.12 25.20 25.19
9/17/2019 21:00 to 20:10 25.16 25.13 25.12 25.11 25.20 25.12
9/17/2019 20:00 to 19:10 25.06 25.12 25.14 25.13 25.11 25.19
9/17/2019 19:00 to 18:10 25.18 25.12 25.27 25.24 25.19 25.37
9/17/2019 18:00 to 17:10 25.25 25.31 25.26 25.20 25.32 25.19
9/17/2019 17:00 to 16:10 25.26 25.36 25.22 25.27 25.32 25.21
9/17/2019 16:00 to 15:10 25.40 25.24 25.37 25.43 25.35 25.24
9/17/2019 15:00 to 14:10 25.33 25.16 25.27 25.24 25.19 25.15
9/17/2019 14:00 to 13:10 25.11 25.16 25.14 25.13 25.19 25.15
9/17/2019 13:00 to 12:10 25.06 24.97 24.92 25.02 24.97 25.05
9/17/2019 12:00 to 11:10 25.08 25.06 24.96 24.97 24.92 24.87
9/17/2019 11:00 to 10:10 25.03 24.94 24.99 24.92 24.92 24.95
9/17/2019 10:00 to 9:10 24.91 24.83 24.85 24.95 24.92 24.97
9/17/2019 09:00 to 8:10 24.99 24.81 24.82 24.89 24.86 24.92
9/17/2019 08:00 to 7:10 24.84 24.85 24.92 24.90 24.91 24.97
9/17/2019 07:00 to 6:10 25.06 24.91 25.10 24.99 25.03 25.12
9/17/2019 06:00 to 5:10 25.06 25.01 25.09 24.98 25.15 25.10
9/17/2019 05:00 to 4:10 25.09 25.15 25.18 25.23 25.23 25.20
9/17/2019 04:00 to 3:10 25.19 25.18 25.25 25.22 25.23 25.17
9/17/2019 03:00 to 2:10 25.18 25.23 25.22 25.23 25.25 25.26
9/17/2019 02:00 to 1:10 25.20 25.20 25.25 25.16 25.32 25.15
9/17/2019 01:00 to 0:10 25.25 25.25 25.26 25.34 25.36 25.29
9/17/2019 00:00 to 23:10 25.34 25.31 25.35 25.41 25.48 25.48
9/16/2019 23:00 to 22:10 25.41 25.42 25.45 25.53 25.48 25.49
9/16/2019 22:00 to 21:10 25.49 25.46 25.66 25.59 25.60 25.63
9/16/2019 21:00 to 20:10 25.68 25.64 25.53 25.56 25.76 25.72
9/16/2019 20:00 to 19:10 25.75 25.75 25.70 25.73 25.79 25.72
9/16/2019 19:00 to 18:10 25.73 25.67 25.64 25.66 25.66 25.74
9/16/2019 18:00 to 17:10 25.84 25.68 25.68 25.84 25.77 25.68
9/16/2019 17:00 to 16:10 25.73 25.73 25.77 25.71 25.74 25.77
9/16/2019 16:00 to 15:10 25.67 25.74 25.66 25.70 25.78 25.79
9/16/2019 15:00 to 14:10 25.68 25.81 25.70 25.68 25.65 25.57
9/16/2019 14:00 to 13:10 25.72 25.69 25.71 25.70 25.60 25.56
9/16/2019 13:00 to 12:10 25.71 25.77 25.55 25.61 25.61 25.61
9/16/2019 12:00 to 11:10 25.56 25.67 25.68 25.59 25.53 25.54
9/16/2019 11:00 to 10:10 25.46 25.42 25.51 25.50 25.53 25.59
9/16/2019 10:00 to 9:10 25.53 25.57 25.53 25.59 25.61 25.51
9/16/2019 09:00 to 8:10 25.54 25.45 25.48 25.53 25.60 25.43
9/16/2019 08:00 to 7:10 25.46 25.55 25.57 25.38 25.53 25.55
9/16/2019 07:00 to 6:10 25.53 25.63 25.57 25.57 25.49 25.46
9/16/2019 06:00 to 5:10 25.55 25.49 25.66 25.55 25.58 25.44
9/16/2019 05:00 to 4:10 25.41 25.59 25.61 25.59 25.47 25.30
9/16/2019 04:00 to 3:10 24.97 25.09 25.38 25.44 25.26 25.36
9/16/2019 03:00 to 2:10 25.40 25.37 25.39 25.15 25.24 25.36
9/16/2019 02:00 to 1:10 25.35 25.31 25.48 25.60 25.41 25.47
9/16/2019 01:00 to 0:10 25.53 25.53 25.59 25.61 25.48 25.60
9/16/2019 00:00 to 23:10 25.55 25.47 25.62 25.58 25.60 25.57
9/15/2019 23:00 to 22:10 25.63 25.54 25.56 25.54 25.61 25.60
9/15/2019 22:00 to 21:10 25.49 25.56 25.51 25.62 25.70 25.59
9/15/2019 21:00 to 20:10 25.58 25.59 25.63 25.56 25.64 25.51
9/15/2019 20:00 to 19:10 25.59 25.51 25.54 25.47 25.66 25.61
9/15/2019 19:00 to 18:10 25.54 25.62 25.55 25.59 25.71 25.66
9/15/2019 18:00 to 17:10 25.63 25.57 25.60 25.60 25.53 25.61
9/15/2019 17:00 to 16:10 25.56 25.63 25.68 25.50 25.56 25.44
9/15/2019 16:00 to 15:10 25.43 25.47 25.38 25.47 25.39 25.43
9/15/2019 15:00 to 14:10 25.55 25.45 25.58 25.47 25.53 25.46
9/15/2019 14:00 to 13:10 25.52 25.43 25.39 25.55 25.36 25.46
9/15/2019 13:00 to 12:10 25.42 25.29 25.35 25.25 25.51 25.30
9/15/2019 12:00 to 11:10 25.41 25.31 24.95 25.21 25.30 25.17
9/15/2019 11:00 to 10:10 25.30 25.30 25.26 25.34 25.24 25.30
9/15/2019 10:00 to 9:10 25.29 25.27 25.16 25.27 25.39 25.17
9/15/2019 09:00 to 8:10 25.13 24.94 24.68 24.94 25.10 25.12
9/15/2019 08:00 to 7:10 24.89 24.99 24.95 25.01 24.88 25.06
9/15/2019 07:00 to 6:10 25.29 25.21 25.20 25.16 25.32 25.32
9/15/2019 06:00 to 5:10 25.28 25.15 25.17 25.17 25.13 25.08
9/15/2019 05:00 to 4:10 25.27 25.47 25.44 25.10 25.03 25.20
9/15/2019 04:00 to 3:10 25.52 25.38 25.30 25.29 25.30 25.40
9/15/2019 03:00 to 2:10 25.40 25.25 25.35 25.34 25.44 25.54
9/15/2019 02:00 to 1:10 25.53 25.49 25.43 25.54 25.47 25.45
9/15/2019 01:00 to 0:10 25.42 25.50 25.45 25.40 25.21 25.16
9/15/2019 00:00 to 23:10 25.29 25.25 25.11 25.36 25.30 25.48
9/14/2019 23:00 to 22:10 25.50 25.47 25.38 25.37 25.24 25.29
9/14/2019 22:00 to 21:10 25.42 25.35 25.43 25.40 25.37 25.34
9/14/2019 21:00 to 20:10 25.03 25.32 25.44 25.26 25.26 25.45
9/14/2019 20:00 to 19:10 25.38 25.28 25.42 25.38 25.35 25.28
9/14/2019 19:00 to 18:10 25.51 25.47 25.43 25.56 25.48 25.40
9/14/2019 18:00 to 17:10 25.35 25.56 25.23 24.91 25.30 25.34
9/14/2019 17:00 to 16:10 25.33 25.25 25.10 25.32 25.15 25.03
9/14/2019 16:00 to 15:10 25.44 25.27 25.22 25.40 25.15 24.80
9/14/2019 15:00 to 14:10 24.80 25.27 25.26 25.14 25.02 25.17
9/14/2019 14:00 to 13:10 25.02 24.92 24.93 24.93 24.86 24.75
9/14/2019 13:00 to 12:10 24.91 24.92 24.72 24.75 24.78 24.58
9/14/2019 12:00 to 11:10 24.27 24.23 24.43 24.24 24.21 24.59
9/14/2019 11:00 to 10:10 24.51 24.54 24.72 24.65 24.20 24.84
9/14/2019 10:00 to 9:10 24.73 24.69 25.07 24.97 24.95 25.04
9/14/2019 09:00 to 8:10 25.17 25.13 25.12 25.20 25.00 25.18
9/14/2019 08:00 to 7:10 24.96 25.10 25.06 25.13 25.12 25.10
9/14/2019 07:00 to 6:10 25.17 25.26 25.34 25.22 25.29 25.22
9/14/2019 06:00 to 5:10 25.15 25.00 25.07 25.10 24.84 25.08
9/14/2019 05:00 to 4:10 25.11 25.09 24.82 24.87 24.64 25.22
9/14/2019 04:00 to 3:10 25.25 25.13 24.47 24.93 25.30 25.34
9/14/2019 03:00 to 2:10 25.13 24.28 24.40 24.43 24.66 25.29
9/14/2019 02:00 to 1:10 25.11 24.84 24.87 24.03 24.55 23.92
9/14/2019 01:00 to 0:10 24.54 24.45 23.94 24.80 24.96 24.97
9/14/2019 00:00 to 23:10 25.04 24.94 24.86 24.89 24.80 25.06
9/13/2019 23:00 to 22:10 25.05 24.51 24.44 23.95 24.65 24.33
9/13/2019 22:00 to 21:10 24.85 24.87 24.64 24.95 24.78 23.94
9/13/2019 21:00 to 20:10 23.97 24.32 24.65 24.78 25.06 25.02
9/13/2019 20:00 to 19:10 24.91 25.09 25.11 25.45 25.45 25.45
9/13/2019 19:00 to 18:10 25.36 25.44 25.39 25.50 25.47 25.59
9/13/2019 18:00 to 17:10 25.43 25.61 25.35 25.32 25.17 25.29
9/13/2019 17:00 to 16:10 24.98 25.03 24.93 24.84 24.68 24.93
9/13/2019 16:00 to 15:10 25.03 24.74 24.95 24.79 24.71 24.54
9/13/2019 15:00 to 14:10 25.08 24.91 24.67 24.38 24.60 24.78
9/13/2019 14:00 to 13:10 25.18 25.27 25.23 25.27 25.19 25.28
9/13/2019 13:00 to 12:10 25.07 24.94 24.96 25.11 25.34 25.24
9/13/2019 12:00 to 11:10 25.19 25.04 25.08 25.35 25.24 25.34
9/13/2019 11:00 to 10:10 25.49 25.45 25.49 25.45 25.32 25.25
9/13/2019 10:00 to 9:10 25.24 25.00 25.19 25.19 25.33 25.21
9/13/2019 09:00 to 8:10 25.26 25.28 25.29 25.37 25.56 25.39
9/13/2019 08:00 to 7:10 25.47 25.23 25.41 25.43 25.36 25.25
9/13/2019 07:00 to 6:10 25.28 25.41 25.48 25.50 25.49 25.42
9/13/2019 06:00 to 5:10 25.33 25.45 25.46 25.48 25.48 25.59
9/13/2019 05:00 to 4:10 25.55 25.55 25.58 25.46 25.45 25.47
9/13/2019 04:00 to 3:10 25.33 25.50 25.55 25.61 25.67 25.64
9/13/2019 03:00 to 2:10 25.55 25.69 25.69 25.62 25.55 25.60
9/13/2019 02:00 to 1:10 25.56 25.55 25.56 25.45 25.43 25.48
9/13/2019 01:00 to 0:10 25.43 25.53 25.43 25.42 25.43 25.56